Time;durP1;ratioP1;P1;durP2;ratioP2;P2;SDS_P1;SDS_P2;PMS_P1;PMS_P2;Temp;Humidity;BMP_temperature;BMP_pressure;BME280_temperature;BME280_humidity;BME280_pressure;Samples;Min_cycle;Max_cycle;Signal;HPM_P1;HPM_P2
2021/12/18 00:01:03;;;;;;;471.53;449.37;;;8.80;99.90;;;;;;4437010;32;20159;-67
2021/12/18 00:03:30;;;;;;;477.47;455.40;;;8.80;99.90;;;;;;4436761;32;20607;-66
2021/12/18 00:05:57;;;;;;;470.20;448.40;;;8.80;99.90;;;;;;4447800;32;20160;-65
2021/12/18 00:08:24;;;;;;;482.90;460.63;;;8.80;99.90;;;;;;4438186;32;20523;-67
2021/12/18 00:10:55;;;;;;;478.00;456.37;;;8.80;99.90;;;;;;4438732;32;20177;-64
2021/12/18 00:13:22;;;;;;;486.93;464.70;;;8.80;99.90;;;;;;4438246;32;20245;-66
2021/12/18 00:15:52;;;;;;;473.30;451.20;;;8.70;99.90;;;;;;4436075;32;20198;-66
2021/12/18 00:18:19;;;;;;;495.07;472.23;;;8.80;99.90;;;;;;4437097;32;20219;-63
2021/12/18 00:20:49;;;;;;;480.30;458.33;;;8.80;99.90;;;;;;4438278;32;20183;-66
2021/12/18 00:23:16;;;;;;;479.40;457.30;;;8.80;99.90;;;;;;4445862;32;20253;-68
2021/12/18 00:25:43;;;;;;;480.23;458.23;;;8.80;99.90;;;;;;4438358;32;20611;-65
2021/12/18 00:28:12;;;;;;;459.87;438.80;;;8.80;99.90;;;;;;4446586;32;20143;-66
2021/12/18 00:30:39;;;;;;;472.13;450.67;;;8.80;99.90;;;;;;4436366;32;20596;-67
2021/12/18 00:33:07;;;;;;;475.40;453.47;;;8.80;99.90;;;;;;4436346;32;20163;-66
2021/12/18 00:35:34;;;;;;;469.57;447.80;;;8.80;99.90;;;;;;4441635;32;20173;-66
2021/12/18 00:38:02;;;;;;;461.37;440.37;;;8.80;99.90;;;;;;4436549;32;20226;-66
2021/12/18 00:40:32;;;;;;;465.40;443.97;;;8.80;99.90;;;;;;4437510;32;20188;-65
2021/12/18 00:43:02;;;;;;;479.80;457.67;;;8.80;99.90;;;;;;4436440;32;20139;-65
2021/12/18 00:45:30;;;;;;;467.93;446.53;;;8.80;99.90;;;;;;4451046;32;20589;-67
2021/12/18 00:47:58;;;;;;;461.67;440.40;;;8.70;99.90;;;;;;4437736;32;20173;-66
2021/12/18 00:50:28;;;;;;;471.83;450.17;;;8.80;99.90;;;;;;4438206;32;20176;-65
2021/12/18 00:52:56;;;;;;;476.03;454.27;;;8.80;99.90;;;;;;4438430;32;20143;-65
2021/12/18 00:55:23;;;;;;;455.63;434.80;;;8.80;99.90;;;;;;4436244;32;20172;-67
2021/12/18 00:57:51;;;;;;;461.40;440.50;;;8.80;99.90;;;;;;4435972;32;20490;-67
2021/12/18 01:00:23;;;;;;;467.73;446.30;;;8.80;99.90;;;;;;4438625;32;20151;-67
2021/12/18 01:02:56;;;;;;;472.97;451.47;;;8.80;99.90;;;;;;4444027;32;20162;-66
2021/12/18 01:05:23;;;;;;;463.07;441.97;;;8.80;99.90;;;;;;4435991;32;20220;-67
2021/12/18 01:07:50;;;;;;;453.40;432.50;;;8.80;99.90;;;;;;4435545;32;20181;-69
2021/12/18 01:10:35;;;;;;;462.30;441.00;;;8.80;99.90;;;;;;4436134;32;20149;-69
2021/12/18 01:13:03;;;;;;;452.07;430.93;;;8.80;99.90;;;;;;4437648;32;20176;-66
2021/12/18 01:15:34;;;;;;;462.27;440.77;;;8.80;99.90;;;;;;4437384;32;20154;-65
2021/12/18 01:23:33;;;;;;;461.80;440.47;;;8.80;99.90;;;;;;4436039;32;20162;-66
2021/12/18 01:26:00;;;;;;;465.63;444.40;;;8.80;99.90;;;;;;4436681;32;20176;-66
2021/12/18 01:28:27;;;;;;;483.73;461.77;;;8.80;99.90;;;;;;4435736;32;20149;-67
2021/12/18 01:30:54;;;;;;;463.33;442.00;;;8.80;99.90;;;;;;4435544;32;20193;-69
2021/12/18 01:33:22;;;;;;;500.63;476.97;;;8.80;99.90;;;;;;4438508;32;20246;-67
2021/12/18 01:35:49;;;;;;;463.93;442.00;;;8.80;99.90;;;;;;4445570;32;20475;-67
2021/12/18 01:38:17;;;;;;;477.27;455.07;;;8.70;99.90;;;;;;4435754;32;20223;-66
2021/12/18 01:40:45;;;;;;;486.87;464.17;;;8.70;99.90;;;;;;4440145;32;20178;-65
2021/12/18 01:46:12;;;;;;;489.70;467.13;;;8.70;99.90;;;;;;4437428;32;20149;-67
2021/12/18 01:51:34;;;;;;;489.00;466.33;;;8.70;99.90;;;;;;4442436;32;20582;-69
2021/12/18 01:54:01;;;;;;;480.13;457.63;;;8.60;99.90;;;;;;4435937;32;20202;-67
2021/12/18 01:56:29;;;;;;;482.27;459.97;;;8.60;99.90;;;;;;4437360;32;20143;-68
2021/12/18 01:58:56;;;;;;;470.53;448.97;;;8.70;99.90;;;;;;4435393;32;20155;-67
2021/12/18 02:01:23;;;;;;;498.30;475.23;;;8.80;99.90;;;;;;4435386;32;20242;-66
2021/12/18 02:03:51;;;;;;;493.27;470.50;;;8.70;99.90;;;;;;4435395;32;20255;-67
2021/12/18 02:06:18;;;;;;;482.40;460.17;;;8.70;99.90;;;;;;4436575;32;20151;-68
2021/12/18 02:08:46;;;;;;;488.80;466.30;;;8.60;99.90;;;;;;4436737;32;20586;-67
2021/12/18 02:11:25;;;;;;;495.13;471.90;;;8.60;99.90;;;;;;4445965;32;20144;-67
2021/12/18 02:14:34;;;;;;;477.10;455.13;;;8.60;99.90;;;;;;4437266;32;20148;-68
2021/12/18 02:19:58;;;;;;;497.80;474.57;;;8.60;99.90;;;;;;4436050;32;20591;-67
2021/12/18 02:22:27;;;;;;;485.20;462.63;;;8.60;99.90;;;;;;4437188;32;20461;-67
2021/12/18 02:24:54;;;;;;;506.70;483.07;;;8.70;99.90;;;;;;4437073;32;20217;-66
2021/12/18 02:27:21;;;;;;;506.07;482.33;;;8.60;99.90;;;;;;4438215;32;20142;-66
2021/12/18 02:29:48;;;;;;;501.00;477.27;;;8.50;99.90;;;;;;4447323;32;20150;-66
2021/12/18 02:32:19;;;;;;;504.47;481.00;;;8.60;99.90;;;;;;4435288;32;20460;-67
2021/12/18 02:34:56;;;;;;;490.90;468.23;;;8.60;99.90;;;;;;4439078;32;20556;-67
2021/12/18 02:37:39;;;;;;;482.17;460.07;;;8.60;99.90;;;;;;4447920;32;20216;-69
2021/12/18 02:42:52;;;;;;;479.73;457.63;;;8.60;99.90;;;;;;4450893;32;20165;-66
2021/12/18 02:45:21;;;;;;;489.23;466.23;;;8.60;99.90;;;;;;4443850;32;20530;-66
2021/12/18 02:47:48;;;;;;;477.03;455.47;;;8.60;99.90;;;;;;4441231;32;20151;-66
2021/12/18 02:50:15;;;;;;;491.00;468.20;;;8.60;99.90;;;;;;4438909;32;20208;-67
2021/12/18 02:52:43;;;;;;;507.90;484.03;;;8.60;99.90;;;;;;4438482;32;20170;-67
2021/12/18 02:55:11;;;;;;;484.17;461.57;;;8.60;99.90;;;;;;4439561;32;20487;-67
2021/12/18 02:57:38;;;;;;;484.40;461.97;;;8.60;99.90;;;;;;4437905;32;20152;-69
2021/12/18 03:00:06;;;;;;;490.97;468.60;;;8.60;99.90;;;;;;4440998;32;20210;-67
2021/12/18 03:02:38;;;;;;;474.50;452.70;;;8.50;99.90;;;;;;4444883;32;20576;-68
2021/12/18 03:05:08;;;;;;;486.13;463.77;;;8.50;99.90;;;;;;4439581;32;20141;-66
2021/12/18 03:07:35;;;;;;;476.77;454.97;;;8.50;99.90;;;;;;4439649;32;20154;-66
2021/12/18 03:22:29;;;;;;;492.20;469.27;;;8.40;99.90;;;;;;4346923;33;20156;-68
2021/12/18 03:24:55;;;;;;;491.27;468.43;;;8.50;99.90;;;;;;4336633;33;20177;-68
2021/12/18 03:27:24;;;;;;;492.20;469.27;;;8.50;99.90;;;;;;4344837;33;20168;-67
2021/12/18 03:29:53;;;;;;;505.57;481.97;;;8.40;99.90;;;;;;4345398;33;20157;-66
2021/12/18 03:32:20;;;;;;;504.27;480.53;;;8.40;99.90;;;;;;4345243;33;20185;-67
2021/12/18 03:34:47;;;;;;;503.27;479.90;;;8.40;99.90;;;;;;4347867;32;20564;-67
2021/12/18 03:37:15;;;;;;;498.20;475.17;;;8.40;99.90;;;;;;4344942;33;20175;-66
2021/12/18 03:39:43;;;;;;;487.23;464.93;;;8.40;99.90;;;;;;4344671;33;20168;-67
2021/12/18 03:42:10;;;;;;;494.10;471.40;;;8.40;99.90;;;;;;4345362;33;20152;-66
2021/12/18 03:44:39;;;;;;;502.87;479.43;;;8.40;99.90;;;;;;4341122;33;20223;-66
2021/12/18 03:47:07;;;;;;;518.37;493.67;;;8.20;99.90;;;;;;4344713;33;20146;-67
2021/12/18 03:49:34;;;;;;;525.70;500.87;;;8.10;99.90;;;;;;4354262;32;20197;-67
2021/12/18 03:52:01;;;;;;;533.67;508.47;;;8.20;99.90;;;;;;4405907;32;20173;-66
2021/12/18 03:54:28;;;;;;;521.20;496.70;;;8.20;99.90;;;;;;4437647;32;20470;-66
2021/12/18 03:56:55;;;;;;;534.23;508.83;;;8.20;99.90;;;;;;4438585;32;20579;-66
2021/12/18 03:59:22;;;;;;;530.70;505.47;;;8.20;99.90;;;;;;4436650;32;20161;-67
2021/12/18 04:01:51;;;;;;;536.77;511.33;;;8.20;99.90;;;;;;4438217;32;20188;-68
2021/12/18 04:04:18;;;;;;;530.37;505.20;;;8.20;99.90;;;;;;4438679;32;20164;-68
2021/12/18 04:06:45;;;;;;;533.17;508.07;;;8.20;99.90;;;;;;4437726;32;20185;-65
2021/12/18 04:09:12;;;;;;;522.20;497.63;;;8.20;99.90;;;;;;4441188;32;20165;-66
2021/12/18 04:11:39;;;;;;;523.23;498.83;;;8.20;99.90;;;;;;4436848;32;20155;-66
2021/12/18 04:14:07;;;;;;;528.73;503.93;;;8.10;99.90;;;;;;4437368;32;20178;-68
2021/12/18 04:16:35;;;;;;;540.40;515.33;;;8.10;99.90;;;;;;4438284;32;20148;-68
2021/12/18 04:19:03;;;;;;;550.83;524.93;;;8.10;99.90;;;;;;4436789;32;20567;-64
2021/12/18 04:21:34;;;;;;;536.47;511.13;;;8.00;99.90;;;;;;4437060;32;20147;-65
2021/12/18 04:24:04;;;;;;;531.90;507.17;;;8.00;99.90;;;;;;4436768;32;20594;-68
2021/12/18 04:26:31;;;;;;;519.33;495.77;;;8.00;99.90;;;;;;4447232;32;20167;-66
2021/12/18 04:28:58;;;;;;;513.53;489.87;;;8.00;99.90;;;;;;4437251;32;20577;-65
2021/12/18 04:31:25;;;;;;;540.97;515.93;;;7.90;99.90;;;;;;4436231;32;20162;-68
2021/12/18 04:33:52;;;;;;;513.40;489.83;;;7.90;99.90;;;;;;4436163;32;20156;-66
2021/12/18 04:36:21;;;;;;;521.67;497.57;;;7.90;99.90;;;;;;4436549;32;20152;-69
2021/12/18 04:38:48;;;;;;;537.07;512.17;;;7.90;99.90;;;;;;4445605;32;20163;-67
2021/12/18 04:41:21;;;;;;;533.53;508.43;;;7.90;99.90;;;;;;4442149;32;20147;-65
2021/12/18 04:43:48;;;;;;;531.40;506.60;;;7.90;99.90;;;;;;4450990;32;20182;-68
2021/12/18 04:46:15;;;;;;;533.17;508.47;;;7.90;99.90;;;;;;4436513;32;20576;-68
2021/12/18 04:48:42;;;;;;;528.93;504.00;;;7.90;99.90;;;;;;4439648;32;20171;-69
2021/12/18 04:51:09;;;;;;;539.93;514.73;;;7.90;99.90;;;;;;4444949;32;20148;-64
2021/12/18 04:53:37;;;;;;;529.30;504.33;;;7.80;99.90;;;;;;4436961;32;20152;-67
2021/12/18 04:56:05;;;;;;;531.20;506.13;;;7.80;99.90;;;;;;4436557;32;20139;-65
2021/12/18 04:58:31;;;;;;;533.43;508.63;;;7.80;99.90;;;;;;4438059;32;20214;-65
2021/12/18 05:00:58;;;;;;;577.20;549.83;;;7.80;99.90;;;;;;4444013;32;20233;-67
2021/12/18 05:03:25;;;;;;;523.07;498.83;;;7.80;99.90;;;;;;4436332;32;20228;-65
2021/12/18 05:05:52;;;;;;;523.40;499.37;;;7.80;99.90;;;;;;4435610;32;20161;-67
2021/12/18 05:08:19;;;;;;;528.50;504.00;;;7.80;99.90;;;;;;4436415;32;20151;-68
2021/12/18 05:10:47;;;;;;;531.50;506.90;;;7.80;99.90;;;;;;4435805;32;20175;-65
2021/12/18 05:13:14;;;;;;;525.93;501.63;;;7.80;99.90;;;;;;4436271;32;20155;-64
2021/12/18 05:15:43;;;;;;;534.30;509.83;;;7.80;99.90;;;;;;4436645;32;20177;-65
2021/12/18 05:18:10;;;;;;;536.27;511.20;;;7.70;99.90;;;;;;4441435;32;20483;-64
2021/12/18 05:20:37;;;;;;;525.03;500.80;;;7.80;99.90;;;;;;4436946;32;20177;-65
2021/12/18 05:23:06;;;;;;;524.83;500.57;;;7.80;99.90;;;;;;4435883;32;20192;-65
2021/12/18 05:25:34;;;;;;;520.20;496.13;;;7.70;99.90;;;;;;4437590;32;20167;-67
2021/12/18 05:28:02;;;;;;;518.87;495.20;;;7.70;99.90;;;;;;4435796;32;20174;-69
2021/12/18 05:30:29;;;;;;;543.07;518.03;;;7.70;99.90;;;;;;4436270;32;20144;-67
2021/12/18 05:32:56;;;;;;;542.37;517.17;;;7.70;99.90;;;;;;4439035;32;20155;-67
2021/12/18 05:35:24;;;;;;;557.67;531.57;;;7.60;99.90;;;;;;4437383;32;20189;-67
2021/12/18 05:37:52;;;;;;;546.37;520.93;;;7.50;99.90;;;;;;4449664;32;20151;-68
2021/12/18 05:40:20;;;;;;;537.17;512.13;;;7.50;99.90;;;;;;4446092;32;20138;-66
2021/12/18 05:42:48;;;;;;;554.63;528.33;;;7.50;99.90;;;;;;4443837;32;20239;-66
2021/12/18 05:45:17;;;;;;;531.30;506.73;;;7.60;99.90;;;;;;4437363;32;20610;-66
2021/12/18 05:47:45;;;;;;;539.50;514.37;;;7.60;99.90;;;;;;4436800;32;20150;-66
2021/12/18 05:50:15;;;;;;;536.00;511.17;;;7.60;99.90;;;;;;4439191;32;20220;-68
2021/12/18 05:52:44;;;;;;;545.17;519.63;;;7.60;99.90;;;;;;4439371;32;20139;-67
2021/12/18 05:55:11;;;;;;;536.30;511.40;;;7.60;99.90;;;;;;4441251;32;20177;-68
2021/12/18 05:57:38;;;;;;;528.80;504.40;;;7.60;99.90;;;;;;4446046;32;20465;-65
2021/12/18 06:00:08;;;;;;;532.83;508.27;;;7.60;99.90;;;;;;4435542;32;20162;-67
2021/12/18 06:02:36;;;;;;;512.00;488.80;;;7.60;99.90;;;;;;4440874;32;20182;-67
2021/12/18 06:05:04;;;;;;;543.97;518.93;;;7.40;99.90;;;;;;4436619;32;20151;-66
2021/12/18 06:07:38;;;;;;;530.20;505.90;;;7.40;99.90;;;;;;4444237;32;20230;-66
2021/12/18 06:10:06;;;;;;;532.37;507.77;;;7.40;99.90;;;;;;4436287;32;20147;-66
2021/12/18 06:12:33;;;;;;;540.63;515.67;;;7.30;99.90;;;;;;4436749;32;20139;-66
2021/12/18 06:15:00;;;;;;;532.60;508.17;;;7.30;99.90;;;;;;4438420;32;20143;-65
2021/12/18 06:17:27;;;;;;;539.43;514.07;;;7.40;99.90;;;;;;4439399;32;20151;-69
2021/12/18 06:19:55;;;;;;;548.47;522.83;;;7.40;99.90;;;;;;4439724;32;20189;-65
2021/12/18 06:22:24;;;;;;;541.07;516.10;;;7.30;99.90;;;;;;4438534;32;20156;-65
2021/12/18 06:24:50;;;;;;;525.63;501.57;;;7.30;99.90;;;;;;4442889;32;20160;-65
2021/12/18 06:27:20;;;;;;;541.67;516.40;;;7.30;99.90;;;;;;4438344;32;20212;-67
2021/12/18 06:29:48;;;;;;;525.93;501.97;;;7.20;99.90;;;;;;4435714;32;20142;-66
2021/12/18 06:32:14;;;;;;;549.80;524.53;;;7.20;99.90;;;;;;4438028;32;20167;-66
2021/12/18 06:34:41;;;;;;;514.70;491.23;;;7.20;99.90;;;;;;4439334;32;20144;-65
2021/12/18 06:37:10;;;;;;;519.73;496.03;;;7.10;99.90;;;;;;4438735;32;20263;-66
2021/12/18 06:39:36;;;;;;;493.90;471.80;;;7.00;99.90;;;;;;4439054;32;20473;-64
2021/12/18 06:42:04;;;;;;;481.37;460.27;;;6.90;99.90;;;;;;4441240;32;20145;-64
2021/12/18 06:44:31;;;;;;;498.53;476.33;;;6.80;99.90;;;;;;4438149;32;20198;-65
2021/12/18 06:46:58;;;;;;;469.87;449.30;;;6.70;99.90;;;;;;4438304;32;20277;-65
2021/12/18 06:49:25;;;;;;;459.17;439.33;;;6.70;99.90;;;;;;4442011;32;20178;-65
2021/12/18 06:51:52;;;;;;;465.13;444.80;;;6.60;99.90;;;;;;4438336;32;20181;-65
2021/12/18 06:54:20;;;;;;;488.43;466.90;;;6.50;99.90;;;;;;4439458;32;20471;-68
2021/12/18 06:56:47;;;;;;;489.40;467.67;;;6.40;99.90;;;;;;4438111;32;20582;-67
2021/12/18 06:59:14;;;;;;;519.77;496.30;;;6.40;99.90;;;;;;4449097;32;20166;-66
2021/12/18 07:01:40;;;;;;;505.57;483.13;;;6.40;99.90;;;;;;4437896;32;20155;-67
2021/12/18 07:04:07;;;;;;;519.20;495.83;;;6.40;99.90;;;;;;4438110;32;20194;-67
2021/12/18 07:06:34;;;;;;;491.47;469.67;;;6.30;99.90;;;;;;4442434;32;20289;-66
2021/12/18 07:09:01;;;;;;;494.53;472.20;;;6.20;99.90;;;;;;4443501;32;20218;-65
2021/12/18 07:11:30;;;;;;;501.40;479.03;;;6.20;99.90;;;;;;4444217;32;20159;-65
2021/12/18 07:13:56;;;;;;;502.80;480.27;;;6.30;99.90;;;;;;4441812;32;20228;-68
2021/12/18 07:16:23;;;;;;;493.80;471.33;;;6.20;99.90;;;;;;4443973;32;20167;-65
2021/12/18 07:18:51;;;;;;;517.00;493.60;;;6.00;99.90;;;;;;4444163;32;20591;-67
2021/12/18 07:21:18;;;;;;;509.17;486.23;;;6.00;99.90;;;;;;4446978;32;20602;-65
2021/12/18 07:23:48;;;;;;;495.77;473.93;;;6.00;99.90;;;;;;4443820;32;20166;-68
2021/12/18 07:26:15;;;;;;;506.07;483.33;;;6.10;99.90;;;;;;4442592;32;20176;-66
2021/12/18 07:28:43;;;;;;;503.93;481.37;;;6.10;99.90;;;;;;4444024;32;20177;-66
2021/12/18 07:31:10;;;;;;;516.80;493.57;;;6.10;99.90;;;;;;4441239;32;20224;-66
2021/12/18 07:33:41;;;;;;;506.07;483.17;;;6.00;99.90;;;;;;4437942;32;20465;-64
2021/12/18 07:36:08;;;;;;;516.10;492.90;;;6.10;99.90;;;;;;4437262;32;20169;-65
2021/12/18 07:38:35;;;;;;;498.33;475.87;;;6.10;99.90;;;;;;4439088;32;20146;-67
2021/12/18 07:41:05;;;;;;;500.53;478.00;;;6.10;99.90;;;;;;4437018;32;20218;-66
2021/12/18 07:43:34;;;;;;;501.00;478.23;;;6.10;99.90;;;;;;4437154;32;20574;-67
2021/12/18 07:46:02;;;;;;;513.57;490.37;;;6.10;99.90;;;;;;4437661;32;20497;-68
2021/12/18 07:48:36;;;;;;;504.90;482.00;;;6.00;99.90;;;;;;4439675;32;20150;-65
2021/12/18 07:51:04;;;;;;;503.33;480.40;;;6.10;99.90;;;;;;4437586;32;20237;-67
2021/12/18 07:53:31;;;;;;;505.40;482.60;;;6.20;99.90;;;;;;4437293;32;20179;-68
2021/12/18 07:56:09;;;;;;;498.50;475.87;;;6.20;99.90;;;;;;4437089;32;20170;-65
2021/12/18 07:58:41;;;;;;;501.30;478.73;;;6.30;99.90;;;;;;4436860;32;20229;-65
2021/12/18 08:01:09;;;;;;;505.10;482.13;;;6.40;99.90;;;;;;4447184;32;20209;-67
2021/12/18 08:03:36;;;;;;;503.00;480.33;;;6.30;99.90;;;;;;4446880;32;20151;-65
2021/12/18 08:06:03;;;;;;;497.33;475.10;;;6.30;99.90;;;;;;4444704;32;20571;-65
2021/12/18 08:08:30;;;;;;;493.47;471.50;;;6.20;99.90;;;;;;4440979;32;20182;-67
2021/12/18 08:10:57;;;;;;;493.63;471.67;;;6.20;99.90;;;;;;4438103;32;20155;-66
2021/12/18 08:13:24;;;;;;;487.47;465.83;;;6.20;99.90;;;;;;4445861;32;20155;-67
2021/12/18 08:15:51;;;;;;;489.73;467.93;;;6.20;99.90;;;;;;4441270;32;20174;-64
2021/12/18 08:18:19;;;;;;;501.30;478.60;;;6.20;99.90;;;;;;4440555;32;20162;-69
2021/12/18 08:20:46;;;;;;;519.20;495.57;;;6.20;99.90;;;;;;4439529;32;20151;-65
2021/12/18 08:23:14;;;;;;;510.30;487.23;;;6.30;99.90;;;;;;4439343;32;20170;-69
2021/12/18 08:25:41;;;;;;;517.13;493.60;;;6.40;99.90;;;;;;4445747;32;20166;-68
2021/12/18 08:28:14;;;;;;;517.90;494.37;;;6.40;99.90;;;;;;4445882;32;20165;-65
2021/12/18 08:30:41;;;;;;;497.60;475.27;;;6.50;99.90;;;;;;4438959;32;20212;-65
2021/12/18 08:33:09;;;;;;;500.37;477.70;;;6.50;99.90;;;;;;4439417;32;20170;-67
2021/12/18 08:35:38;;;;;;;508.47;485.77;;;6.50;99.90;;;;;;4443865;32;20632;-69
2021/12/18 08:38:06;;;;;;;485.40;463.87;;;6.50;99.90;;;;;;4439870;32;20173;-66
2021/12/18 08:40:35;;;;;;;488.83;467.10;;;6.40;99.90;;;;;;4445274;32;20579;-67
2021/12/18 08:43:02;;;;;;;518.47;495.13;;;6.30;99.90;;;;;;4447282;32;20147;-67
2021/12/18 08:45:30;;;;;;;509.47;486.37;;;6.40;99.90;;;;;;4436497;32;20163;-68
2021/12/18 08:47:57;;;;;;;505.87;482.93;;;6.50;99.90;;;;;;4447489;32;20715;-66
2021/12/18 08:50:24;;;;;;;500.10;477.77;;;6.40;99.90;;;;;;4442054;32;20163;-66
2021/12/18 08:52:53;;;;;;;521.20;497.53;;;6.50;99.90;;;;;;4446858;32;20226;-68
2021/12/18 08:55:22;;;;;;;505.13;482.67;;;6.60;99.90;;;;;;4445101;32;20791;-66
2021/12/18 08:57:50;;;;;;;485.73;464.10;;;6.50;99.90;;;;;;4439368;32;20225;-67
2021/12/18 09:00:21;;;;;;;509.70;486.80;;;6.50;99.90;;;;;;4444487;32;20226;-66
2021/12/18 09:02:51;;;;;;;489.03;467.53;;;6.60;99.90;;;;;;4450276;32;20151;-64
2021/12/18 09:05:18;;;;;;;477.83;456.77;;;6.60;99.90;;;;;;4442939;32;20147;-68
2021/12/18 09:07:45;;;;;;;467.87;447.40;;;6.60;99.90;;;;;;4439718;32;20147;-65
2021/12/18 09:10:15;;;;;;;441.63;422.77;;;6.60;99.90;;;;;;4445698;32;20563;-67
2021/12/18 09:12:43;;;;;;;450.10;430.80;;;6.60;99.90;;;;;;4438818;32;20180;-65
2021/12/18 09:15:11;;;;;;;451.47;432.17;;;6.60;99.90;;;;;;4447756;32;20304;-66
2021/12/18 09:17:38;;;;;;;465.20;445.10;;;6.70;99.90;;;;;;4437278;32;20173;-67
2021/12/18 09:20:06;;;;;;;462.10;442.00;;;6.80;99.90;;;;;;4435881;32;20226;-65
2021/12/18 09:22:33;;;;;;;454.87;435.27;;;6.90;99.90;;;;;;4435662;32;20226;-69
2021/12/18 09:25:00;;;;;;;431.43;413.10;;;6.80;99.90;;;;;;4437302;32;20186;-67
2021/12/18 09:27:28;;;;;;;433.87;415.47;;;6.80;99.90;;;;;;4446595;32;20200;-67
2021/12/18 09:29:56;;;;;;;417.33;399.73;;;6.80;99.90;;;;;;4436105;32;20497;-65
2021/12/18 09:32:23;;;;;;;425.80;407.73;;;6.80;99.90;;;;;;4439459;32;20230;-65
2021/12/18 09:34:49;;;;;;;423.07;405.30;;;6.90;99.90;;;;;;4437308;32;20147;-66
2021/12/18 09:37:16;;;;;;;438.47;419.93;;;7.00;99.90;;;;;;4437566;32;20243;-65
2021/12/18 09:39:43;;;;;;;447.47;428.40;;;6.90;99.90;;;;;;4436282;32;20229;-66
2021/12/18 09:42:11;;;;;;;434.37;415.70;;;6.90;99.90;;;;;;4435714;32;20374;-67
2021/12/18 09:44:39;;;;;;;442.40;423.73;;;7.00;99.90;;;;;;4436589;32;20609;-67
2021/12/18 09:47:07;;;;;;;435.03;416.60;;;7.00;99.90;;;;;;4439086;32;20165;-65
2021/12/18 09:49:37;;;;;;;430.97;412.67;;;7.00;99.90;;;;;;4444859;32;20650;-65
2021/12/18 09:52:04;;;;;;;402.13;385.40;;;7.00;99.90;;;;;;4446469;32;20226;-65
2021/12/18 09:54:31;;;;;;;391.40;375.27;;;6.80;99.90;;;;;;4438780;32;20138;-64
2021/12/18 09:56:58;;;;;;;380.53;365.00;;;6.70;99.90;;;;;;4439742;32;20479;-68
2021/12/18 09:59:25;;;;;;;374.03;358.77;;;6.70;99.90;;;;;;4439020;32;20239;-65
2021/12/18 10:01:54;;;;;;;383.60;367.60;;;6.60;99.90;;;;;;4440681;32;20238;-65
2021/12/18 10:04:26;;;;;;;367.40;352.43;;;6.60;99.90;;;;;;4439785;32;20269;-67
2021/12/18 10:06:53;;;;;;;381.47;365.77;;;6.60;99.90;;;;;;4440006;32;20177;-65
2021/12/18 10:09:32;;;;;;;369.93;354.83;;;6.50;99.90;;;;;;4442208;32;20190;-68
2021/12/18 10:12:01;;;;;;;366.53;351.67;;;6.60;99.90;;;;;;4447604;32;20222;-64
2021/12/18 10:14:37;;;;;;;381.17;365.63;;;6.60;99.90;;;;;;4443138;32;20445;-65
2021/12/18 10:17:18;;;;;;;395.70;379.47;;;6.60;99.90;;;;;;4445912;32;20601;-65
2021/12/18 10:19:49;;;;;;;373.97;358.70;;;6.70;99.90;;;;;;4437676;32;20159;-67
2021/12/18 10:22:16;;;;;;;377.30;361.67;;;6.60;99.90;;;;;;4441570;32;20155;-68
2021/12/18 10:24:45;;;;;;;410.13;392.93;;;6.70;99.90;;;;;;4438573;32;20186;-67
2021/12/18 10:27:19;;;;;;;410.77;393.70;;;6.90;99.90;;;;;;4450372;32;20179;-65
2021/12/18 10:29:47;;;;;;;386.83;370.90;;;7.00;99.90;;;;;;4445131;32;20193;-63
2021/12/18 10:32:18;;;;;;;414.53;397.07;;;6.90;99.90;;;;;;4443936;32;20169;-67
2021/12/18 10:34:52;;;;;;;387.87;371.83;;;7.00;99.90;;;;;;4448329;32;20646;-67
2021/12/18 10:37:22;;;;;;;385.23;369.33;;;7.10;99.90;;;;;;4445648;32;20205;-66
2021/12/18 10:40:01;;;;;;;395.17;378.67;;;7.10;99.90;;;;;;4439675;32;20226;-66
2021/12/18 10:42:30;;;;;;;382.23;366.50;;;7.10;99.90;;;;;;4442624;32;20174;-67
2021/12/18 10:45:09;;;;;;;384.97;369.07;;;7.20;99.90;;;;;;4447133;32;20170;-65
2021/12/18 10:48:01;;;;;;;388.27;372.10;;;7.20;99.90;;;;;;4443869;32;20152;-65
2021/12/18 10:50:35;;;;;;;393.10;376.73;;;7.20;99.90;;;;;;4443216;32;20165;-66
2021/12/18 10:53:05;;;;;;;399.97;383.33;;;7.40;99.90;;;;;;4441467;32;20568;-65
2021/12/18 10:55:40;;;;;;;373.23;357.87;;;7.30;99.90;;;;;;4442448;32;20190;-64
2021/12/18 10:58:10;;;;;;;378.53;362.93;;;7.20;99.90;;;;;;4440394;32;20651;-68
2021/12/18 11:00:44;;;;;;;372.07;356.77;;;7.20;99.90;;;;;;4441574;32;21038;-65
2021/12/18 11:03:22;;;;;;;382.73;366.97;;;7.20;99.90;;;;;;4439938;32;20150;-65
2021/12/18 11:06:11;;;;;;;380.03;364.53;;;7.20;99.90;;;;;;4439391;32;20147;-65
2021/12/18 11:09:07;;;;;;;338.17;324.30;;;7.20;99.90;;;;;;4444121;32;20143;-66
2021/12/18 11:14:26;;;;;;;354.40;340.03;;;7.20;99.90;;;;;;4436554;32;20154;-65
2021/12/18 11:16:55;;;;;;;377.40;361.73;;;7.10;99.90;;;;;;4438242;32;20151;-63
2021/12/18 11:19:26;;;;;;;385.73;369.70;;;7.30;99.90;;;;;;4440574;32;20147;-66
2021/12/18 11:21:55;;;;;;;392.67;376.27;;;7.30;99.90;;;;;;4438325;32;20425;-67
2021/12/18 11:24:30;;;;;;;420.63;402.80;;;7.30;99.90;;;;;;4439161;32;20200;-66
2021/12/18 11:26:59;;;;;;;404.83;387.77;;;7.40;99.90;;;;;;4450486;32;20492;-66
2021/12/18 11:29:33;;;;;;;393.23;376.77;;;7.40;99.90;;;;;;4439924;32;20185;-70
2021/12/18 11:32:02;;;;;;;396.17;379.40;;;7.40;99.90;;;;;;4450002;32;20224;-68
2021/12/18 11:34:31;;;;;;;412.03;394.57;;;7.40;99.90;;;;;;4451004;32;20146;-67
2021/12/18 11:37:00;;;;;;;410.23;392.73;;;7.40;99.90;;;;;;4439125;32;20490;-66
2021/12/18 11:39:31;;;;;;;421.90;403.93;;;7.50;99.90;;;;;;4446204;32;20146;-67
2021/12/18 11:41:58;;;;;;;399.67;383.10;;;7.60;99.90;;;;;;4444520;32;20148;-66
2021/12/18 11:44:32;;;;;;;382.67;366.50;;;7.60;99.90;;;;;;4440466;32;20139;-65
2021/12/18 11:47:00;;;;;;;375.47;359.83;;;7.50;99.90;;;;;;4440414;32;20234;-68
2021/12/18 11:49:45;;;;;;;362.60;347.57;;;7.50;99.90;;;;;;4441665;32;20162;-64
2021/12/18 11:52:12;;;;;;;376.80;361.13;;;7.40;99.90;;;;;;4445709;32;20178;-70
2021/12/18 11:54:50;;;;;;;377.37;361.67;;;7.50;99.90;;;;;;4437831;32;20148;-68
2021/12/18 11:57:43;;;;;;;375.67;360.07;;;7.60;99.90;;;;;;4437472;32;20143;-69
2021/12/18 12:00:33;;;;;;;388.53;372.37;;;7.70;99.90;;;;;;4444823;32;20143;-68
2021/12/18 12:03:02;;;;;;;396.90;380.43;;;7.80;99.90;;;;;;4438764;32;20552;-66
2021/12/18 12:05:37;;;;;;;382.57;366.70;;;7.90;99.90;;;;;;4440179;32;20147;-65
2021/12/18 12:08:29;;;;;;;353.03;338.63;;;7.90;99.90;;;;;;4451857;32;20130;-66
2021/12/18 12:11:17;;;;;;;348.43;334.23;;;8.00;99.90;;;;;;4440613;32;20209;-65
2021/12/18 12:13:57;;;;;;;342.93;329.03;;;8.00;99.90;;;;;;4448222;32;20540;-65
2021/12/18 12:17:02;;;;;;;343.23;329.33;;;8.00;99.90;;;;;;4446207;32;20170;-68
2021/12/18 12:19:49;;;;;;;330.50;317.23;;;7.80;99.90;;;;;;4438992;32;20152;-66
2021/12/18 12:22:40;;;;;;;357.23;342.70;;;7.90;99.90;;;;;;4400403;32;20310;-65
2021/12/18 12:25:11;;;;;;;321.53;308.70;;;8.00;99.90;;;;;;4400776;32;20227;-68
2021/12/18 12:27:40;;;;;;;329.47;316.17;;;8.00;99.90;;;;;;4396008;32;20256;-68
2021/12/18 12:30:10;;;;;;;321.20;308.30;;;7.90;99.90;;;;;;4404874;32;20216;-65
2021/12/18 12:32:38;;;;;;;338.07;324.53;;;7.90;99.90;;;;;;4396623;32;20156;-66
2021/12/18 12:35:08;;;;;;;335.43;321.87;;;8.00;99.90;;;;;;4404677;32;20147;-65
2021/12/18 12:37:39;;;;;;;345.03;330.90;;;7.90;99.90;;;;;;4405017;32;20187;-65
2021/12/18 12:40:11;;;;;;;346.00;332.07;;;8.00;99.90;;;;;;4393195;32;20148;-65
2021/12/18 12:42:42;;;;;;;356.47;341.97;;;8.10;99.90;;;;;;4399057;32;20167;-64
2021/12/18 12:45:25;;;;;;;370.63;355.53;;;8.20;99.90;;;;;;4405498;32;20539;-65
2021/12/18 12:47:54;;;;;;;346.67;332.47;;;8.30;99.90;;;;;;4402389;32;20207;-70
2021/12/18 12:50:30;;;;;;;374.47;359.23;;;8.40;99.90;;;;;;4403666;32;20218;-66
2021/12/18 12:53:08;;;;;;;395.03;378.70;;;8.40;99.90;;;;;;4401314;32;20261;-66
2021/12/18 12:55:46;;;;;;;364.30;349.43;;;8.40;99.90;;;;;;4389478;32;20168;-70
2021/12/18 12:58:22;;;;;;;381.73;366.13;;;8.40;99.90;;;;;;4397539;32;20569;-66
2021/12/18 13:00:59;;;;;;;367.60;352.27;;;8.40;99.90;;;;;;4452019;32;20191;-66
2021/12/18 13:03:37;;;;;;;371.93;356.43;;;8.40;99.90;;;;;;4452487;32;20161;-68